createdAt,value
2022-07-26T00:00:22.601Z,94224.94
2022-07-26T00:02:54.675Z,94229.50
2022-07-26T00:05:23.399Z,94222.59
2022-07-26T00:08:10.699Z,94225.25
2022-07-26T00:10:42.462Z,94224.53
2022-07-26T00:13:12.476Z,94221.78
2022-07-26T00:15:41.233Z,94220.59
2022-07-26T00:18:12.641Z,94217.47
2022-07-26T00:20:42.268Z,94217.38
2022-07-26T00:23:11.682Z,94216.28
2022-07-26T00:25:40.731Z,94222.28
2022-07-26T00:28:13.367Z,94218.69
2022-07-26T00:30:42.430Z,94220.19
2022-07-26T00:33:13.451Z,94217.47
2022-07-26T00:35:42.421Z,94209.56
2022-07-26T00:38:11.315Z,94208.72
2022-07-26T00:40:39.904Z,94216.41
2022-07-26T00:43:09.383Z,94207.56
2022-07-26T00:45:37.947Z,94214.63
2022-07-26T00:48:07.978Z,94215.16
2022-07-26T00:50:38.055Z,94220.59
2022-07-26T00:53:07.453Z,94223.56
2022-07-26T00:55:36.177Z,94214.69
2022-07-26T00:58:06.508Z,94213.13
2022-07-26T01:00:35.158Z,94216.38
2022-07-26T01:03:04.046Z,94209.00
2022-07-26T01:05:34.079Z,94207.81
2022-07-26T01:08:04.302Z,94217.31
2022-07-26T01:10:33.144Z,94209.53
2022-07-26T01:13:02.038Z,94215.16
2022-07-26T01:15:30.562Z,94212.88
2022-07-26T01:17:59.046Z,94212.56
2022-07-26T01:20:27.636Z,94214.22
2022-07-26T01:22:57.586Z,94210.47
2022-07-26T01:25:43.526Z,94213.13
2022-07-26T01:28:19.649Z,94210.94
2022-07-26T01:31:14.259Z,94210.19
2022-07-26T01:33:43.208Z,94204.97
2022-07-26T01:36:12.474Z,94200.75
2022-07-26T01:39:02.767Z,94203.72
2022-07-26T01:41:38.349Z,94197.34
2022-07-26T01:44:08.564Z,94203.47
2022-07-26T01:46:37.969Z,94207.81
2022-07-26T01:49:09.224Z,94202.81
2022-07-26T01:51:38.128Z,94212.78
2022-07-26T01:54:10.827Z,94209.59
2022-07-26T01:56:39.703Z,94205.44
2022-07-26T01:59:34.387Z,94225.00
2022-07-26T02:02:04.089Z,94219.59
2022-07-26T02:04:51.067Z,94218.97
2022-07-26T02:07:20.070Z,94222.03
2022-07-26T02:09:50.180Z,94214.88
2022-07-26T02:12:18.778Z,94228.16
2022-07-26T02:14:47.304Z,94224.13
2022-07-26T02:17:16.077Z,94224.25
2022-07-26T02:19:45.079Z,94218.00
2022-07-26T02:22:13.825Z,94226.22
2022-07-26T02:24:42.482Z,94217.97
2022-07-26T02:27:12.397Z,94221.78
2022-07-26T02:29:41.087Z,94226.03
2022-07-26T02:32:11.118Z,94214.50
2022-07-26T02:34:39.700Z,94218.19
2022-07-26T02:37:08.649Z,94222.91
2022-07-26T02:39:37.387Z,94223.38
2022-07-26T02:42:06.188Z,94226.91
2022-07-26T02:44:57.692Z,94234.00
2022-07-26T02:47:26.273Z,94231.75
2022-07-26T02:49:54.784Z,94226.91
2022-07-26T02:52:23.324Z,94231.00
2022-07-26T02:54:51.953Z,94229.13
2022-07-26T02:57:20.490Z,94229.47
2022-07-26T02:59:48.998Z,94228.91
2022-07-26T03:02:18.904Z,94237.88
2022-07-26T03:04:47.388Z,94224.84
2022-07-26T03:07:15.882Z,94237.13
2022-07-26T03:09:44.478Z,94239.28
2022-07-26T03:12:13.137Z,94233.28
2022-07-26T03:14:41.596Z,94241.06
2022-07-26T03:17:10.170Z,94234.31
2022-07-26T03:19:49.288Z,94234.78
2022-07-26T03:22:18.033Z,94246.03
2022-07-26T03:24:46.557Z,94242.41
2022-07-26T03:27:15.646Z,94247.41
2022-07-26T03:29:44.210Z,94250.59
2022-07-26T03:32:13.143Z,94247.28
2022-07-26T03:34:43.806Z,94245.69
2022-07-26T03:37:12.419Z,94243.63
2022-07-26T03:40:16.176Z,94253.31
2022-07-26T03:42:45.314Z,94245.06
2022-07-26T03:45:44.637Z,94241.53
2022-07-26T03:48:13.274Z,94244.44
2022-07-26T03:50:43.389Z,94240.66
2022-07-26T03:53:12.102Z,94250.94
2022-07-26T03:55:58.421Z,94240.28
2022-07-26T03:58:26.954Z,94244.91
2022-07-26T04:00:55.718Z,94250.19
2022-07-26T04:03:25.424Z,94240.41
2022-07-26T04:05:56.085Z,94239.91
2022-07-26T04:08:24.714Z,94246.56
2022-07-26T04:10:53.367Z,94236.63
2022-07-26T04:13:24.007Z,94243.78
2022-07-26T04:15:52.718Z,94237.44
2022-07-26T04:18:21.802Z,94248.38
2022-07-26T04:20:54.693Z,94237.53
2022-07-26T04:23:23.433Z,94233.19
2022-07-26T04:25:52.129Z,94231.34
2022-07-26T04:28:20.937Z,94234.03
2022-07-26T04:30:49.537Z,94225.69
2022-07-26T04:33:18.475Z,94230.22
2022-07-26T04:35:47.263Z,94237.28
2022-07-26T04:38:17.791Z,94231.56
2022-07-26T04:40:46.523Z,94234.41
2022-07-26T04:43:16.198Z,94228.31
2022-07-26T04:45:46.142Z,94239.47
2022-07-26T04:48:15.725Z,94235.69
2022-07-26T04:50:45.676Z,94235.41
2022-07-26T04:53:16.234Z,94240.38
2022-07-26T04:55:45.140Z,94232.84
2022-07-26T04:58:14.041Z,94235.97
2022-07-26T05:01:08.506Z,94238.41
2022-07-26T05:03:31.397Z,94235.69
2022-07-26T05:05:59.969Z,94241.44
2022-07-26T05:08:30.012Z,94236.34
2022-07-26T05:10:58.534Z,94226.53
2022-07-26T05:13:30.725Z,94224.56
2022-07-26T05:16:01.650Z,94216.78
2022-07-26T05:18:45.558Z,94223.06
2022-07-26T05:21:17.798Z,94221.28
2022-07-26T05:23:48.142Z,94227.59
2022-07-26T05:26:16.875Z,94225.09
2022-07-26T05:28:45.524Z,94222.25
2022-07-26T05:31:14.126Z,94224.19
2022-07-26T05:33:42.896Z,94228.13
2022-07-26T05:36:11.708Z,94219.66
2022-07-26T05:38:40.508Z,94213.47
2022-07-26T05:41:10.852Z,94211.69
2022-07-26T05:43:41.610Z,94210.13
2022-07-26T05:46:12.593Z,94213.25
2022-07-26T05:48:41.818Z,94219.91
2022-07-26T05:51:10.801Z,94209.22
2022-07-26T05:53:40.109Z,94214.44
2022-07-26T05:56:10.379Z,94201.81
2022-07-26T05:58:38.997Z,94206.47
2022-07-26T06:01:07.863Z,94201.91
2022-07-26T06:03:36.509Z,94192.16
2022-07-26T06:06:05.269Z,94198.63
2022-07-26T06:08:34.530Z,94204.88
2022-07-26T06:11:03.189Z,94196.53
2022-07-26T06:13:33.083Z,94190.88
2022-07-26T06:16:02.879Z,94187.28
2022-07-26T06:18:31.409Z,94182.88
2022-07-26T06:21:02.439Z,94188.84
2022-07-26T06:23:56.225Z,94186.44
2022-07-26T06:26:25.269Z,94189.13
2022-07-26T06:28:55.495Z,94187.22
2022-07-26T06:31:24.435Z,94186.28
2022-07-26T06:33:53.136Z,94187.56
2022-07-26T06:36:22.948Z,94184.41
2022-07-26T06:38:55.016Z,94190.47
2022-07-26T06:41:23.534Z,94186.13
2022-07-26T06:43:51.992Z,94186.31
2022-07-26T06:46:22.838Z,94182.59
2022-07-26T06:48:53.032Z,94178.00
2022-07-26T06:51:25.602Z,94176.66
2022-07-26T06:53:54.211Z,94177.72
2022-07-26T06:56:22.693Z,94178.50
2022-07-26T06:58:55.284Z,94172.41
2022-07-26T07:01:58.272Z,94173.66
2022-07-26T07:04:13.739Z,94171.84
2022-07-26T07:06:42.546Z,94170.28
2022-07-26T07:09:13.569Z,94166.69
2022-07-26T07:11:44.902Z,94165.03
2022-07-26T07:14:13.689Z,94170.06
2022-07-26T07:16:43.655Z,94169.88
2022-07-26T07:19:25.059Z,94162.47
2022-07-26T07:21:53.903Z,94167.03
2022-07-26T07:24:23.539Z,94163.81
2022-07-26T07:26:52.220Z,94163.72
2022-07-26T07:29:21.288Z,94168.09
2022-07-26T07:31:51.709Z,94167.50
2022-07-26T07:34:37.016Z,94162.34
2022-07-26T07:37:05.784Z,94167.28
2022-07-26T07:39:42.154Z,94146.88
2022-07-26T07:42:15.730Z,94158.13
2022-07-26T07:44:45.027Z,94148.06
2022-07-26T07:47:15.512Z,94152.19
2022-07-26T07:49:44.362Z,94142.56
2022-07-26T07:52:12.862Z,94146.31
2022-07-26T07:54:42.224Z,94151.47
2022-07-26T07:57:11.477Z,94153.81
2022-07-26T07:59:42.783Z,94147.75
2022-07-26T08:02:12.846Z,94136.63
2022-07-26T08:04:42.945Z,94141.81
2022-07-26T08:07:13.592Z,94133.44
2022-07-26T08:09:43.390Z,94138.47
2022-07-26T08:12:12.391Z,94125.31
2022-07-26T08:14:41.579Z,94128.00
2022-07-26T08:17:10.319Z,94128.38
2022-07-26T08:19:41.981Z,94123.97
2022-07-26T08:22:12.710Z,94122.19
2022-07-26T08:24:41.955Z,94116.00
2022-07-26T08:27:10.469Z,94113.44
2022-07-26T08:29:39.042Z,94119.31
2022-07-26T08:32:32.762Z,94109.06
2022-07-26T08:35:16.806Z,94108.09
2022-07-26T08:37:47.974Z,94102.09
2022-07-26T08:40:16.703Z,94094.41
2022-07-26T08:42:52.745Z,94094.16
2022-07-26T08:45:25.021Z,94089.97
2022-07-26T08:48:16.667Z,94090.59
2022-07-26T08:50:43.332Z,94095.38
2022-07-26T08:53:14.411Z,94089.22
2022-07-26T08:56:06.534Z,94095.00
2022-07-26T08:58:36.319Z,94090.34
2022-07-26T09:01:12.865Z,94090.75
2022-07-26T09:03:43.142Z,94088.06
2022-07-26T09:06:17.778Z,94086.09
2022-07-26T09:08:50.005Z,94092.66
2022-07-26T09:11:33.492Z,94088.06
2022-07-26T09:14:04.545Z,94088.06
2022-07-26T09:16:39.186Z,94085.00
2022-07-26T09:19:19.317Z,94081.19
2022-07-26T09:21:47.928Z,94079.28
2022-07-26T09:24:33.440Z,94074.66
2022-07-26T09:27:04.237Z,94071.97
2022-07-26T09:29:43.834Z,94076.97
2022-07-26T09:32:18.378Z,94068.50
2022-07-26T09:34:53.733Z,94065.75
2022-07-26T09:37:36.623Z,94066.53
2022-07-26T09:40:10.048Z,94064.22
2022-07-26T09:42:39.646Z,94063.06
2022-07-26T09:45:18.586Z,94063.06
2022-07-26T09:47:47.131Z,94058.81
2022-07-26T09:50:18.870Z,94052.94
2022-07-26T09:53:08.575Z,94052.22
2022-07-26T09:55:56.950Z,94054.16
2022-07-26T09:58:26.665Z,94051.47
2022-07-26T10:01:00.460Z,94045.63
2022-07-26T10:03:32.158Z,94049.53
2022-07-26T10:06:02.356Z,94039.00
2022-07-26T10:08:32.504Z,94035.50
2022-07-26T10:11:09.429Z,94038.50
2022-07-26T10:13:38.780Z,94038.44
2022-07-26T10:16:08.078Z,94034.06
2022-07-26T10:18:47.465Z,94023.88
2022-07-26T10:21:27.722Z,94032.28
2022-07-26T10:23:58.819Z,94028.34
2022-07-26T10:26:45.521Z,94016.66
2022-07-26T10:29:29.503Z,94021.34
2022-07-26T10:32:20.345Z,94013.94
2022-07-26T10:34:49.574Z,94011.88
2022-07-26T10:37:29.751Z,94016.16
2022-07-26T10:40:25.687Z,94017.72
2022-07-26T10:43:39.700Z,94014.25
2022-07-26T10:46:25.128Z,94005.28
2022-07-26T10:48:58.489Z,94003.00
2022-07-26T10:51:29.647Z,93998.09
2022-07-26T10:54:02.715Z,93991.84
2022-07-26T10:56:33.601Z,93991.97
2022-07-26T10:59:04.499Z,93988.00
2022-07-26T11:01:40.795Z,93992.41
2022-07-26T11:04:20.543Z,93982.59
2022-07-26T11:06:50.044Z,93981.16
2022-07-26T11:09:21.046Z,93968.59
2022-07-26T11:11:52.516Z,93971.63
2022-07-26T11:14:22.551Z,93963.91
2022-07-26T11:16:51.893Z,93956.69
2022-07-26T11:19:22.348Z,93953.56
2022-07-26T11:21:57.177Z,93948.53
2022-07-26T11:24:26.856Z,93947.75
2022-07-26T11:26:56.636Z,93936.75
2022-07-26T11:29:38.216Z,93944.00
2022-07-26T11:32:18.540Z,93943.09
2022-07-26T11:34:48.817Z,93927.72
2022-07-26T11:37:17.366Z,93926.44
2022-07-26T11:39:48.125Z,93927.53
2022-07-26T11:42:19.749Z,93922.34
2022-07-26T11:44:51.342Z,93931.47
2022-07-26T11:47:24.184Z,93917.75
2022-07-26T11:52:44.465Z,93919.94
2022-07-26T11:55:12.994Z,93919.63
2022-07-26T11:57:41.813Z,93904.44
2022-07-26T12:00:14.400Z,93900.94
2022-07-26T12:02:43.193Z,93908.91
2022-07-26T12:05:18.696Z,93906.59
2022-07-26T12:08:03.025Z,93892.47
2022-07-26T12:10:31.931Z,93896.81
2022-07-26T12:13:12.759Z,93890.03
2022-07-26T12:16:07.964Z,93889.03
2022-07-26T12:18:36.726Z,93883.78
2022-07-26T12:21:09.330Z,93882.81
2022-07-26T12:23:48.164Z,93881.56
2022-07-26T12:26:22.684Z,93880.78
2022-07-26T12:28:51.355Z,93887.72
2022-07-26T12:31:30.462Z,93879.47
2022-07-26T12:34:00.015Z,93870.53
2022-07-26T12:36:30.169Z,93868.16
2022-07-26T12:39:01.170Z,93873.94
2022-07-26T12:41:38.384Z,93870.81
2022-07-26T12:44:08.554Z,93876.13
2022-07-26T12:46:39.075Z,93883.16
2022-07-26T12:49:07.665Z,93878.81
2022-07-26T12:51:41.380Z,93879.31
2022-07-26T12:54:10.546Z,93878.25
2022-07-26T12:56:39.251Z,93865.75
2022-07-26T12:59:07.926Z,93871.97
2022-07-26T13:01:36.684Z,93871.16
2022-07-26T13:04:06.911Z,93866.34
2022-07-26T13:06:35.526Z,93866.88
2022-07-26T13:09:04.082Z,93860.50
2022-07-26T13:11:33.554Z,93863.06
2022-07-26T13:14:02.579Z,93855.50
2022-07-26T13:16:31.089Z,93853.16
2022-07-26T13:18:59.692Z,93853.16
2022-07-26T13:21:33.556Z,93851.44
2022-07-26T13:24:02.725Z,93855.78
2022-07-26T13:26:31.214Z,93853.34
2022-07-26T13:28:59.892Z,93850.91
2022-07-26T13:31:28.615Z,93853.97
2022-07-26T13:33:57.159Z,93853.06
2022-07-26T13:36:25.719Z,93849.38
2022-07-26T13:38:55.931Z,93860.50
2022-07-26T13:41:24.575Z,93867.00
2022-07-26T13:43:54.141Z,93857.81
2022-07-26T13:46:23.933Z,93854.94
2022-07-26T13:49:00.456Z,93850.69
2022-07-26T13:51:49.761Z,93849.53
2022-07-26T13:54:22.079Z,93850.31
2022-07-26T13:56:51.383Z,93847.94
2022-07-26T13:59:20.573Z,93850.19
2022-07-26T14:01:49.146Z,93850.91
2022-07-26T14:04:18.086Z,93846.47
2022-07-26T14:06:46.866Z,93837.22
2022-07-26T14:09:16.530Z,93843.41
2022-07-26T14:11:46.905Z,93837.19
2022-07-26T14:14:15.828Z,93838.59
2022-07-26T14:16:48.043Z,93840.50
2022-07-26T14:19:18.099Z,93844.38
2022-07-26T14:21:58.863Z,93837.88
2022-07-26T14:24:29.252Z,93840.84
2022-07-26T14:27:00.243Z,93826.88
2022-07-26T14:29:31.576Z,93825.31
2022-07-26T14:32:21.339Z,93831.66
2022-07-26T14:34:50.904Z,93822.81
2022-07-26T14:37:44.192Z,93818.50
2022-07-26T14:40:09.916Z,93816.09
2022-07-26T14:42:39.880Z,93805.53
2022-07-26T14:45:11.291Z,93810.34
2022-07-26T14:47:40.083Z,93811.09
2022-07-26T14:50:53.034Z,93806.81
2022-07-26T14:53:22.593Z,93807.44
2022-07-26T14:55:51.124Z,93797.56
2022-07-26T14:58:21.156Z,93801.00
2022-07-26T15:00:52.124Z,93797.91
2022-07-26T15:03:20.707Z,93793.72
2022-07-26T15:05:49.226Z,93803.34
2022-07-26T15:08:17.731Z,93794.06
2022-07-26T15:10:46.415Z,93792.88
2022-07-26T15:13:17.330Z,93792.25
2022-07-26T15:15:47.587Z,93796.22
2022-07-26T15:18:16.036Z,93798.09
2022-07-26T15:20:44.674Z,93791.78
2022-07-26T15:23:35.672Z,93790.50
2022-07-26T15:26:04.316Z,93793.88
2022-07-26T15:28:35.283Z,93791.00
2022-07-26T15:31:05.290Z,93788.78
2022-07-26T15:33:35.373Z,93797.38
2022-07-26T15:36:06.107Z,93796.47
2022-07-26T15:38:34.757Z,93790.38
2022-07-26T15:41:03.337Z,93790.09
2022-07-26T15:43:48.120Z,93793.63
2022-07-26T15:46:31.077Z,93784.66
2022-07-26T15:49:00.258Z,93794.75
2022-07-26T15:51:29.123Z,93793.97
2022-07-26T15:53:57.683Z,93785.63
2022-07-26T15:56:26.193Z,93784.13
2022-07-26T15:58:54.717Z,93789.19
2022-07-26T16:01:23.500Z,93792.25
2022-07-26T16:03:53.416Z,93783.00
2022-07-26T16:06:23.140Z,93786.13
2022-07-26T16:09:15.313Z,93793.78
2022-07-26T16:11:40.204Z,93785.31
2022-07-26T16:14:09.735Z,93786.59
2022-07-26T16:16:38.362Z,93782.56
2022-07-26T16:19:08.619Z,93794.03
2022-07-26T16:21:37.912Z,93788.41
2022-07-26T16:24:07.810Z,93792.50
2022-07-26T16:26:36.961Z,93793.44
2022-07-26T16:29:06.054Z,93799.44
2022-07-26T16:31:34.855Z,93804.97
2022-07-26T16:34:03.695Z,93805.38
2022-07-26T16:36:34.310Z,93800.75
2022-07-26T16:39:02.922Z,93800.03
2022-07-26T16:41:32.010Z,93797.31
2022-07-26T16:44:00.600Z,93807.44
2022-07-26T16:46:29.188Z,93808.25
2022-07-26T16:48:57.809Z,93811.78
2022-07-26T16:51:27.189Z,93808.34
2022-07-26T16:53:57.085Z,93808.00
2022-07-26T16:56:25.613Z,93815.47
2022-07-26T16:58:54.173Z,93827.13
2022-07-26T17:01:22.753Z,93821.78
2022-07-26T17:03:51.425Z,93816.00
2022-07-26T17:06:20.092Z,93818.78
2022-07-26T17:08:48.609Z,93823.41
2022-07-26T17:11:18.529Z,93817.66
2022-07-26T17:13:47.083Z,93821.53
2022-07-26T17:16:15.712Z,93826.97
2022-07-26T17:18:53.474Z,93826.66
2022-07-26T17:21:22.236Z,93828.19
2022-07-26T17:23:51.505Z,93830.94
2022-07-26T17:26:22.096Z,93825.53
2022-07-26T17:28:50.577Z,93825.50
2022-07-26T17:31:19.164Z,93824.69
2022-07-26T17:33:47.753Z,93835.50
2022-07-26T17:36:43.018Z,93829.28
2022-07-26T17:39:14.916Z,93836.84
2022-07-26T17:41:49.562Z,93843.34
2022-07-26T17:44:18.279Z,93845.22
2022-07-26T17:46:46.793Z,93838.97
2022-07-26T17:49:16.105Z,93837.03
2022-07-26T17:51:45.959Z,93841.22
2022-07-26T17:54:14.459Z,93839.94
2022-07-26T17:56:42.937Z,93836.78
2022-07-26T17:59:14.233Z,93841.88
2022-07-26T18:01:53.828Z,93853.72
2022-07-26T18:04:56.901Z,93849.22
2022-07-26T18:07:25.678Z,93847.00
2022-07-26T18:09:57.795Z,93850.09
2022-07-26T18:12:26.362Z,93852.31
2022-07-26T18:15:01.230Z,93863.22
2022-07-26T18:17:29.709Z,93864.19
2022-07-26T18:19:58.200Z,93857.44
2022-07-26T18:22:27.330Z,93866.41
2022-07-26T18:24:55.870Z,93870.38
2022-07-26T18:27:28.186Z,93872.09
2022-07-26T18:29:57.831Z,93865.25
2022-07-26T18:32:28.262Z,93877.16
2022-07-26T18:34:56.839Z,93875.44
2022-07-26T18:37:25.701Z,93881.56
2022-07-26T18:39:57.776Z,93880.44
2022-07-26T18:42:27.466Z,93904.25
2022-07-26T18:44:56.022Z,93889.59
2022-07-26T18:47:24.774Z,93889.34
2022-07-26T18:49:54.795Z,93893.16
2022-07-26T18:52:28.576Z,93896.00
2022-07-26T18:55:07.259Z,93891.72
2022-07-26T18:57:36.647Z,93895.75
2022-07-26T19:00:08.067Z,93904.50
2022-07-26T19:02:36.737Z,93908.19
2022-07-26T19:05:07.762Z,93910.59
2022-07-26T19:07:37.600Z,93901.50
2022-07-26T19:10:08.373Z,93905.16
2022-07-26T19:12:58.698Z,93907.09
2022-07-26T19:15:27.519Z,93902.97
2022-07-26T19:17:56.081Z,93905.38
2022-07-26T19:20:26.034Z,93904.28
2022-07-26T19:22:54.611Z,93904.97
2022-07-26T19:25:23.154Z,93914.69
2022-07-26T19:27:51.849Z,93917.75
2022-07-26T19:30:20.303Z,93906.16
2022-07-26T19:32:48.957Z,93912.03
2022-07-26T19:35:17.492Z,93908.31
2022-07-26T19:37:47.661Z,93910.91
2022-07-26T19:40:16.425Z,93910.59
2022-07-26T19:42:45.070Z,93905.88
2022-07-26T19:45:14.136Z,93919.09
2022-07-26T19:47:42.805Z,93916.13
2022-07-26T19:50:12.050Z,93915.38
2022-07-26T19:52:41.305Z,93905.28
2022-07-26T19:55:11.657Z,93909.06
2022-07-26T19:57:40.456Z,93914.16
2022-07-26T20:00:12.253Z,93913.72
2022-07-26T20:02:41.647Z,93916.75
2022-07-26T20:05:11.778Z,93912.59
2022-07-26T20:07:40.589Z,93919.97
2022-07-26T20:10:11.155Z,93923.03
2022-07-26T20:12:39.705Z,93917.78
2022-07-26T20:15:09.610Z,93914.22
2022-07-26T20:17:39.829Z,93919.28
2022-07-26T20:20:12.030Z,93924.28
2022-07-26T20:22:40.508Z,93916.09
2022-07-26T20:25:11.203Z,93926.31
2022-07-26T20:27:40.022Z,93925.41
2022-07-26T20:30:10.664Z,93917.41
2022-07-26T20:32:39.169Z,93920.97
2022-07-26T20:35:08.789Z,93927.91
2022-07-26T20:37:37.683Z,93921.75
2022-07-26T20:40:09.312Z,93930.34
2022-07-26T20:42:40.412Z,93927.44
2022-07-26T20:45:13.000Z,93921.88
2022-07-26T20:47:43.067Z,93932.22
2022-07-26T20:50:13.202Z,93931.66
2022-07-26T20:52:42.011Z,93936.03
2022-07-26T20:55:12.197Z,93938.78
2022-07-26T20:57:42.612Z,93945.50
2022-07-26T21:00:12.989Z,93946.16
2022-07-26T21:02:41.826Z,93954.06
2022-07-26T21:05:12.014Z,93960.66
2022-07-26T21:07:58.638Z,93963.41
2022-07-26T21:10:29.142Z,93962.19
2022-07-26T21:13:00.941Z,93953.28
2022-07-26T21:15:29.779Z,93959.72
2022-07-26T21:17:58.681Z,93961.94
2022-07-26T21:20:27.300Z,93957.13
2022-07-26T21:23:08.140Z,93962.25
2022-07-26T21:25:44.540Z,93952.34
2022-07-26T21:28:25.333Z,93957.22
2022-07-26T21:30:54.212Z,93960.53
2022-07-26T21:33:22.796Z,93965.22
2022-07-26T21:35:51.318Z,93964.00
2022-07-26T21:38:20.109Z,93965.41
2022-07-26T21:40:48.757Z,93955.28
2022-07-26T21:43:17.342Z,93968.63
2022-07-26T21:45:47.265Z,93963.09
2022-07-26T21:48:15.786Z,93962.66
2022-07-26T21:50:46.518Z,93952.75
2022-07-26T21:53:15.197Z,93966.19
2022-07-26T21:55:44.087Z,93963.44
2022-07-26T21:58:12.730Z,93967.63
2022-07-26T22:00:41.379Z,93961.91
2022-07-26T22:03:11.872Z,93966.97
2022-07-26T22:05:42.614Z,93959.19
2022-07-26T22:08:20.310Z,93956.09
2022-07-26T22:10:49.152Z,93965.56
2022-07-26T22:13:17.969Z,93963.47
2022-07-26T22:15:47.846Z,93964.78
2022-07-26T22:18:19.708Z,93961.38
2022-07-26T22:20:49.846Z,93960.47
2022-07-26T22:23:19.822Z,93968.16
2022-07-26T22:25:48.296Z,93969.81
2022-07-26T22:28:18.456Z,93975.03
2022-07-26T22:30:47.739Z,93971.38
2022-07-26T22:33:18.571Z,93965.78
2022-07-26T22:35:47.324Z,93985.81
2022-07-26T22:38:41.195Z,93976.06
2022-07-26T22:41:09.786Z,93983.38
2022-07-26T22:43:38.377Z,93977.28
2022-07-26T22:46:06.930Z,93978.03
2022-07-26T22:48:38.694Z,93982.00
2022-07-26T22:51:07.908Z,93975.72
2022-07-26T22:53:36.525Z,93981.50
2022-07-26T22:56:05.301Z,93981.59
2022-07-26T22:59:22.690Z,93978.66
2022-07-26T23:01:51.248Z,93975.69
2022-07-26T23:04:21.198Z,93976.91
2022-07-26T23:06:49.940Z,93986.47
2022-07-26T23:09:18.466Z,93990.19
2022-07-26T23:11:47.173Z,93983.53
2022-07-26T23:14:15.667Z,93988.03
2022-07-26T23:16:44.344Z,93988.13
2022-07-26T23:19:13.269Z,93986.88
2022-07-26T23:21:43.622Z,93984.56
2022-07-26T23:24:15.981Z,93983.72
2022-07-26T23:26:44.628Z,93983.56
2022-07-26T23:29:13.589Z,93993.47
2022-07-26T23:31:43.469Z,93988.91
2022-07-26T23:34:12.183Z,93990.59
2022-07-26T23:36:42.340Z,93989.56
2022-07-26T23:39:11.289Z,93996.34
2022-07-26T23:41:40.647Z,93992.16
2022-07-26T23:44:09.133Z,93979.44
2022-07-26T23:46:37.932Z,93981.78
2022-07-26T23:49:06.705Z,93986.50
2022-07-26T23:51:35.383Z,93981.22
2022-07-26T23:54:05.771Z,93967.72
2022-07-26T23:56:34.462Z,93968.88
2022-07-26T23:59:03.030Z,93965.97
